Impacts TAF Board
For situational awareness. Not to be used for flight planning purposes.
IDs:

KDFW - Dallas-Ft Worth Intl, TX, US

Issued at 2109 UTC 26 Feb 2020
Updated at 2302 UTC 26 Feb 2020
Potential Impact None Slight Moderate High
Time2253Z 27/00Z 27/01Z 27/02Z 27/03Z 27/04Z 27/05Z 27/06Z 27/07Z 27/08Z 27/09Z 27/10Z 27/11Z 27/12Z>>
Type OBS PRVL PRVL PRVL PRVL PRVL PRVL PRVL PRVL PRVL PRVL PRVL PRVL PRVL
VIS 10 >6 >6 >6 >6 >6 >6 >6 >6 >6 >6 >6 >6 >6
CIG -- -- -- -- -- -- -- -- -- -- -- -- -- --
Cover FEW SKC SKC SKC SKC SKC SKC SKC SKC SKC SKC SKC SKC SKC
FltCat VFR VFR VFR VFR VFR VFR VFR VFR VFR VFR VFR VFR VFR VFR
WX -- -- -- -- -- -- -- -- -- -- -- -- -- --
WDir 340 330 330 330 330 330 330 330 330 240 240 240 240 240
WSpd 19 11 11 11 11 11 11 11 11 3 3 3 3 3
WGst 25 -- -- -- -- -- -- -- -- -- -- -- -- --
R13/31
XWnd 8 3 3 3 3 3 3 3 3 -3 -3 -3 -3 -3
XGst 11 -- -- -- -- -- -- -- -- -- -- -- -- --
HWnd -17 -11 -11 -11 -11 -11 -11 -11 -11 -1 -1 -1 -1 -1
HGst -23 -- -- -- -- -- -- -- -- -- -- -- -- --
R17/35
XWnd -6 -6 -6 -6 -6 -6 -6 -6 -6 -3 -3 -3 -3 -3
XGst -9 -- -- -- -- -- -- -- -- -- -- -- -- --
HWnd -18 -10 -10 -10 -10 -10 -10 -10 -10 2 2 2 2 2
HGst -23 -- -- -- -- -- -- -- -- -- -- -- -- --
R18/36
XWnd -6 -6 -6 -6 -6 -6 -6 -6 -6 -3 -3 -3 -3 -3
XGst -9 -- -- -- -- -- -- -- -- -- -- -- -- --
HWnd -18 -10 -10 -10 -10 -10 -10 -10 -10 2 2 2 2 2
HGst -23 -- -- -- -- -- -- -- -- -- -- -- -- --
Raw TAF
KDFW 262109Z 2621/2724 33018G28KT P6SM FEW060
  FM270000 33011KT P6SM SKC
  FM270800 24003KT P6SM SKC
  FM272000 21011KT P6SM SKC


Raw METAR
KDFW 262253Z 34019G25KT 10SM FEW060 09/M07 A3036 RMK AO2 PK WND 33029/2216 SLP282 T00891072
KDFW 262153Z 32019G24KT 10SM FEW060 09/M06 A3037 RMK AO2 PK WND 36028/2103 SLP283 T00891061
KDFW 262053Z COR 33019G27KT 10SM SCT055 09/M06 A3037 RMK AO2 PK WND 33029/2017 SLP286 T00891056 58015

METAR Board
Radar Display
Forecast Discussion
For situational awareness. Not to be used for flight planning purposes.